createdAt,value
2023-04-20T00:01:55.564Z,85.79
2023-04-20T00:04:23.850Z,85.79
2023-04-20T00:06:52.196Z,85.32
2023-04-20T00:09:20.127Z,84.90
2023-04-20T00:11:48.735Z,84.65
2023-04-20T00:14:16.788Z,84.35
2023-04-20T00:16:44.694Z,84.04
2023-04-20T00:19:13.109Z,84.41
2023-04-20T00:21:41.248Z,85.32
2023-04-20T00:24:09.139Z,85.15
2023-04-20T00:26:37.475Z,84.52
2023-04-20T00:29:05.518Z,83.80
2023-04-20T00:31:33.485Z,84.55
2023-04-20T00:34:01.685Z,85.56
2023-04-20T00:36:30.167Z,85.27
2023-04-20T00:38:59.688Z,83.18
2023-04-20T00:41:29.616Z,82.12
2023-04-20T00:43:57.519Z,80.38
2023-04-20T00:46:25.948Z,80.89
2023-04-20T00:48:54.699Z,81.15
2023-04-20T00:51:23.104Z,81.04
2023-04-20T00:53:50.948Z,81.71
2023-04-20T00:56:19.675Z,83.18
2023-04-20T00:58:47.678Z,83.19
2023-04-20T01:01:17.962Z,82.30
2023-04-20T01:03:47.380Z,82.82
2023-04-20T01:06:15.719Z,84.09
2023-04-20T01:08:51.838Z,85.00
2023-04-20T01:11:19.912Z,85.74
2023-04-20T01:13:47.740Z,84.13
2023-04-20T01:16:15.724Z,86.45
2023-04-20T01:18:47.494Z,86.04
2023-04-20T01:21:17.502Z,83.79
2023-04-20T01:23:46.323Z,83.37
2023-04-20T01:26:16.727Z,83.24
2023-04-20T01:28:45.378Z,83.10
2023-04-20T01:31:16.546Z,84.08
2023-04-20T01:33:44.639Z,84.98
2023-04-20T01:36:13.156Z,86.46
2023-04-20T01:38:41.619Z,84.03
2023-04-20T01:41:10.156Z,88.05
2023-04-20T01:43:39.065Z,88.94
2023-04-20T01:46:07.502Z,87.59
2023-04-20T01:48:35.513Z,87.74
2023-04-20T01:51:03.510Z,89.77
2023-04-20T01:53:31.740Z,92.62
2023-04-20T01:55:59.711Z,92.66
2023-04-20T01:58:27.702Z,94.89
2023-04-20T02:00:56.009Z,95.31
2023-04-20T02:03:24.620Z,94.29
2023-04-20T02:05:52.816Z,95.70
2023-04-20T02:08:21.277Z,94.11
2023-04-20T02:10:49.553Z,94.36
2023-04-20T02:13:17.661Z,94.77
2023-04-20T02:15:46.085Z,96.80
2023-04-20T02:18:15.691Z,97.81
2023-04-20T02:20:44.600Z,96.56
2023-04-20T02:23:12.703Z,97.08
2023-04-20T02:25:40.937Z,95.96
2023-04-20T02:28:08.794Z,96.81
2023-04-20T02:30:39.391Z,96.43
2023-04-20T02:33:07.797Z,99.15
2023-04-20T02:35:35.829Z,98.48
2023-04-20T02:38:03.908Z,97.40
2023-04-20T02:40:32.166Z,99.19
2023-04-20T02:43:00.051Z,99.78
2023-04-20T02:45:28.381Z,97.31
2023-04-20T02:47:57.487Z,100.00
2023-04-20T02:50:26.740Z,100.00
2023-04-20T02:52:55.034Z,100.00
2023-04-20T02:55:23.495Z,100.00
2023-04-20T02:57:51.855Z,100.00
2023-04-20T03:00:20.917Z,98.97
2023-04-20T03:02:52.333Z,100.00
2023-04-20T03:05:20.335Z,97.64
2023-04-20T03:07:48.726Z,99.79
2023-04-20T03:10:17.010Z,100.00
2023-04-20T03:12:45.943Z,99.51
2023-04-20T03:15:17.239Z,99.94
2023-04-20T03:17:47.307Z,100.00
2023-04-20T03:20:15.634Z,100.00
2023-04-20T03:22:43.549Z,100.00
2023-04-20T03:25:12.175Z,100.00
2023-04-20T03:27:41.107Z,98.86
2023-04-20T03:30:10.314Z,97.58
2023-04-20T03:32:39.157Z,99.66
2023-04-20T03:35:07.643Z,96.88
2023-04-20T03:37:38.697Z,98.15
2023-04-20T03:40:08.723Z,99.05
2023-04-20T03:42:37.761Z,100.00
2023-04-20T03:45:06.838Z,99.70
2023-04-20T03:47:35.150Z,98.31
2023-04-20T03:50:03.460Z,95.05
2023-04-20T03:52:31.848Z,94.46
2023-04-20T03:55:00.735Z,92.54
2023-04-20T03:57:28.810Z,92.14
2023-04-20T03:59:56.809Z,95.66
2023-04-20T04:02:25.454Z,95.02
2023-04-20T04:04:54.264Z,96.29
2023-04-20T04:07:22.601Z,93.55
2023-04-20T04:09:50.738Z,94.05
2023-04-20T04:12:19.096Z,93.83
2023-04-20T04:14:47.814Z,93.38
2023-04-20T04:17:16.027Z,93.40
2023-04-20T04:19:44.315Z,90.98
2023-04-20T04:22:12.180Z,95.61
2023-04-20T04:24:41.854Z,97.83
2023-04-20T04:27:11.343Z,98.45
2023-04-20T04:29:42.014Z,98.70
2023-04-20T04:32:12.049Z,96.33
2023-04-20T04:34:39.930Z,96.44
2023-04-20T04:37:08.400Z,97.47
2023-04-20T04:39:38.954Z,93.76
2023-04-20T04:42:07.875Z,83.26
2023-04-20T04:44:37.693Z,81.13
2023-04-20T04:47:06.684Z,80.57
2023-04-20T04:49:35.947Z,77.94
2023-04-20T04:52:04.169Z,79.51
2023-04-20T04:54:32.808Z,79.95
2023-04-20T04:57:03.801Z,78.37
2023-04-20T04:59:33.721Z,79.38
2023-04-20T05:02:02.851Z,80.91
2023-04-20T05:04:31.588Z,80.12
2023-04-20T05:07:00.940Z,78.19
2023-04-20T05:09:33.958Z,75.13
2023-04-20T05:12:04.376Z,73.53
2023-04-20T05:14:34.146Z,77.34
2023-04-20T05:17:03.648Z,74.91
2023-04-20T05:19:32.018Z,72.81
2023-04-20T05:22:00.248Z,72.14
2023-04-20T05:24:29.096Z,71.70
2023-04-20T05:26:56.926Z,70.69
2023-04-20T05:29:24.840Z,71.21
2023-04-20T05:31:53.089Z,71.69
2023-04-20T05:34:21.016Z,76.02
2023-04-20T05:36:48.968Z,76.58
2023-04-20T05:39:17.924Z,76.03
2023-04-20T05:41:47.897Z,69.93
2023-04-20T05:44:15.840Z,68.33
2023-04-20T05:46:44.098Z,71.91
2023-04-20T05:49:12.274Z,66.34
2023-04-20T05:51:40.547Z,62.40
2023-04-20T05:54:08.896Z,62.01
2023-04-20T05:56:36.871Z,59.65
2023-04-20T05:59:05.004Z,60.35
2023-04-20T06:01:33.270Z,63.00
2023-04-20T06:04:01.742Z,64.52
2023-04-20T06:06:29.792Z,60.05
2023-04-20T06:08:58.380Z,61.95
2023-04-20T06:11:26.727Z,57.19
2023-04-20T06:13:54.828Z,58.74
2023-04-20T06:16:22.918Z,61.07
2023-04-20T06:18:51.181Z,60.47
2023-04-20T06:21:19.717Z,58.37
2023-04-20T06:23:47.611Z,57.80
2023-04-20T06:26:15.770Z,58.83
2023-04-20T06:28:43.663Z,54.54
2023-04-20T06:31:12.103Z,54.95
2023-04-20T06:33:41.065Z,56.34
2023-04-20T06:36:09.022Z,52.56
2023-04-20T06:38:37.023Z,51.32
2023-04-20T06:41:05.435Z,49.54
2023-04-20T06:43:33.727Z,46.10
2023-04-20T06:46:03.401Z,49.06
2023-04-20T06:48:33.252Z,49.39
2023-04-20T06:51:02.233Z,53.06
2023-04-20T06:53:30.285Z,53.69
2023-04-20T06:55:58.760Z,46.01
2023-04-20T06:58:26.995Z,47.42
2023-04-20T07:00:55.055Z,46.43
2023-04-20T07:03:24.554Z,48.48
2023-04-20T11:40:09.786Z,40.78
2023-04-20T11:42:38.258Z,40.78
2023-04-20T11:45:07.152Z,37.74
2023-04-20T11:47:35.165Z,33.95
2023-04-20T11:50:03.893Z,33.45
2023-04-20T11:52:31.927Z,33.48
2023-04-20T11:55:00.499Z,33.95
2023-04-20T11:57:28.915Z,38.24
2023-04-20T11:59:57.025Z,39.47
2023-04-20T12:02:25.129Z,37.40
2023-04-20T12:04:53.676Z,42.74
2023-04-20T12:07:22.888Z,40.98
2023-04-20T12:09:50.915Z,39.55
2023-04-20T12:12:20.234Z,41.97
2023-04-20T12:14:48.340Z,42.01
2023-04-20T12:17:16.581Z,40.69
2023-04-20T12:19:45.003Z,39.68
2023-04-20T12:22:13.034Z,41.89
2023-04-20T12:24:41.507Z,42.56
2023-04-20T12:27:09.947Z,41.25
2023-04-20T12:29:37.934Z,43.98
2023-04-20T12:32:06.073Z,44.03
2023-04-20T12:34:34.458Z,41.88
2023-04-20T12:37:02.537Z,41.14
2023-04-20T12:39:30.583Z,41.40
2023-04-20T12:41:59.003Z,38.83
2023-04-20T12:44:27.203Z,37.78
2023-04-20T12:46:55.987Z,41.71
2023-04-20T12:49:24.393Z,40.37
2023-04-20T12:51:52.391Z,39.92
2023-04-20T12:54:20.628Z,42.36
2023-04-20T12:56:49.002Z,40.80
2023-04-20T12:59:17.040Z,43.79
2023-04-20T13:01:45.093Z,43.93
2023-04-20T13:04:16.386Z,41.32
2023-04-20T13:06:44.699Z,43.79
2023-04-20T13:09:12.870Z,43.93
2023-04-20T13:11:41.553Z,40.11
2023-04-20T13:14:09.568Z,37.22
2023-04-20T13:16:37.848Z,38.82
2023-04-20T13:19:06.275Z,33.74
2023-04-20T13:21:34.292Z,36.54
2023-04-20T13:24:02.328Z,34.78
2023-04-20T13:26:30.937Z,32.04
2023-04-20T13:28:59.008Z,36.03
2023-04-20T13:31:27.205Z,36.73
2023-04-20T13:33:55.692Z,36.39
2023-04-20T13:36:24.583Z,36.06
2023-04-20T13:38:53.716Z,37.59
2023-04-20T13:41:23.947Z,41.20
2023-04-20T13:43:52.059Z,41.35
2023-04-20T13:46:21.454Z,40.70
2023-04-20T13:48:49.828Z,40.56
2023-04-20T13:51:17.933Z,41.76
2023-04-20T13:53:48.355Z,40.51
2023-04-20T13:56:17.303Z,40.11
2023-04-20T13:58:45.453Z,39.55
2023-04-20T14:01:17.833Z,39.11
2023-04-20T14:03:46.529Z,42.09
2023-04-20T14:06:14.700Z,39.96
2023-04-20T14:08:43.745Z,40.58
2023-04-20T14:11:12.201Z,41.11
2023-04-20T14:13:41.374Z,36.41
2023-04-20T14:16:14.612Z,37.47
2023-04-20T14:18:43.047Z,35.23
2023-04-20T14:21:11.124Z,37.46
2023-04-20T14:23:39.193Z,39.15
2023-04-20T14:26:07.682Z,35.16
2023-04-20T14:28:36.136Z,34.98
2023-04-20T14:31:04.496Z,36.05
2023-04-20T14:33:32.949Z,33.35
2023-04-20T14:36:01.105Z,37.22
2023-04-20T14:38:29.121Z,35.22
2023-04-20T14:40:57.458Z,35.06
2023-04-20T14:43:25.460Z,32.61
2023-04-20T14:45:55.393Z,35.48
2023-04-20T14:48:25.273Z,34.85
2023-04-20T14:50:56.720Z,37.33
2023-04-20T14:53:25.154Z,37.11
2023-04-20T14:55:53.274Z,38.58
2023-04-20T14:58:21.322Z,34.82
2023-04-20T15:00:49.884Z,36.94
2023-04-20T15:03:18.676Z,36.66
2023-04-20T15:05:47.358Z,35.24
2023-04-20T15:08:15.897Z,34.52
2023-04-20T15:10:43.896Z,34.79
2023-04-20T15:13:11.904Z,36.26
2023-04-20T15:15:48.291Z,36.76
2023-04-20T15:18:18.014Z,37.72
2023-04-20T15:20:46.463Z,37.46
2023-04-20T15:23:14.481Z,35.98
2023-04-20T15:25:42.663Z,35.74
2023-04-20T15:28:11.416Z,37.20
2023-04-20T15:30:39.458Z,37.06
2023-04-20T15:33:08.077Z,37.77
2023-04-20T15:35:36.690Z,38.25
2023-04-20T15:38:04.785Z,38.11
2023-04-20T15:40:32.780Z,38.75
2023-04-20T15:43:03.051Z,37.41
2023-04-20T15:45:31.448Z,38.24
2023-04-20T15:48:01.190Z,38.14
2023-04-20T15:50:29.852Z,38.92
2023-04-20T15:52:57.886Z,38.73
2023-04-20T15:55:26.194Z,39.64
2023-04-20T15:57:57.509Z,39.87
2023-04-20T16:00:25.605Z,38.40
2023-04-20T16:02:54.404Z,34.99
2023-04-20T16:05:41.094Z,36.16
2023-04-20T16:08:28.096Z,36.99
2023-04-20T16:10:56.327Z,38.10
2023-04-20T16:13:26.389Z,38.66
2023-04-20T16:15:56.041Z,37.00
2023-04-20T16:18:24.744Z,37.42
2023-04-20T16:20:52.819Z,37.38
2023-04-20T16:23:20.937Z,36.84
2023-04-20T16:25:50.048Z,35.98
2023-04-20T16:28:18.393Z,33.48
2023-04-20T16:30:46.505Z,31.47
2023-04-20T16:33:15.515Z,32.42
2023-04-20T16:35:43.673Z,33.00
2023-04-20T16:38:11.769Z,33.12
2023-04-20T16:40:40.128Z,34.13
2023-04-20T16:43:08.148Z,32.87
2023-04-20T16:45:36.476Z,34.58
2023-04-20T16:48:05.213Z,36.68
2023-04-20T16:50:33.408Z,37.83
2023-04-20T16:53:01.455Z,37.05
2023-04-20T16:55:29.821Z,36.19
2023-04-20T16:58:01.220Z,37.56
2023-04-20T17:00:31.295Z,38.17
2023-04-20T17:03:01.616Z,39.74
2023-04-20T17:05:30.163Z,38.36
2023-04-20T17:07:58.139Z,38.99
2023-04-20T17:10:26.124Z,39.35
2023-04-20T17:12:54.502Z,38.66
2023-04-20T17:15:22.697Z,38.79
2023-04-20T17:17:50.808Z,38.84
2023-04-20T17:20:19.372Z,40.39
2023-04-20T17:22:47.416Z,41.55
2023-04-20T17:25:15.619Z,43.06
2023-04-20T17:27:44.057Z,42.83
2023-04-20T17:30:12.626Z,42.60
2023-04-20T17:32:40.783Z,43.77
2023-04-20T17:35:09.414Z,44.08
2023-04-20T17:37:37.387Z,44.03
2023-04-20T17:40:06.515Z,44.53
2023-04-20T17:42:35.124Z,43.75
2023-04-20T17:45:03.181Z,44.67
2023-04-20T17:47:32.844Z,43.95
2023-04-20T17:50:01.455Z,44.79
2023-04-20T17:52:29.565Z,45.44
2023-04-20T17:54:58.072Z,44.27
2023-04-20T17:57:26.700Z,46.28
2023-04-20T17:59:54.775Z,45.61
2023-04-20T18:02:24.685Z,45.85
2023-04-20T18:04:55.475Z,46.46
2023-04-20T18:07:23.939Z,46.10
2023-04-20T18:09:52.057Z,45.77
2023-04-20T18:12:20.866Z,47.30
2023-04-20T18:14:48.891Z,46.49
2023-04-20T18:17:16.878Z,47.08
2023-04-20T18:19:45.249Z,48.71
2023-04-20T18:22:14.979Z,48.16
2023-04-20T18:24:44.654Z,47.75
2023-04-20T18:27:13.537Z,47.97
2023-04-20T18:29:41.644Z,50.72
2023-04-20T18:32:09.682Z,48.92
2023-04-20T18:34:38.069Z,48.54
2023-04-20T18:37:06.224Z,52.65
2023-04-20T18:39:34.396Z,47.57
2023-04-20T18:42:02.773Z,49.18
2023-04-20T18:44:30.967Z,50.00
2023-04-20T18:46:59.177Z,46.94
2023-04-20T18:49:27.675Z,47.53
2023-04-20T18:51:55.712Z,53.56
2023-04-20T18:54:23.765Z,52.96
2023-04-20T18:56:52.227Z,49.71
2023-04-20T18:59:20.945Z,48.66
2023-04-20T19:01:49.405Z,48.85
2023-04-20T19:04:18.151Z,49.59
2023-04-20T19:06:46.368Z,48.71
2023-04-20T19:09:14.535Z,49.65
2023-04-20T19:11:43.032Z,47.83
2023-04-20T19:14:12.843Z,50.55
2023-04-20T19:16:42.090Z,47.91
2023-04-20T19:19:11.640Z,51.05
2023-04-20T19:21:40.106Z,48.13
2023-04-20T19:24:08.486Z,52.66
2023-04-20T19:26:37.074Z,49.65
2023-04-20T19:29:05.641Z,51.96
2023-04-20T19:31:38.071Z,50.52
2023-04-20T19:34:07.427Z,52.57
2023-04-20T19:36:36.075Z,54.41
2023-04-20T19:39:04.492Z,57.92
2023-04-20T19:41:33.492Z,58.80
2023-04-20T19:44:06.620Z,58.67
2023-04-20T19:46:35.137Z,61.08
2023-04-20T19:49:03.589Z,62.82
2023-04-20T19:51:35.329Z,64.11
2023-04-20T19:54:05.098Z,63.43
2023-04-20T19:56:34.438Z,62.76
2023-04-20T19:59:02.560Z,63.79
2023-04-20T20:01:31.149Z,63.93
2023-04-20T20:03:59.648Z,66.89
2023-04-20T20:06:28.665Z,67.98
2023-04-20T20:08:56.866Z,68.10
2023-04-20T20:11:25.948Z,68.05
2023-04-20T20:13:54.094Z,65.58
2023-04-20T20:16:22.524Z,65.79
2023-04-20T20:18:51.560Z,69.96
2023-04-20T20:21:19.678Z,70.10
2023-04-20T20:23:47.661Z,65.82
2023-04-20T20:26:16.237Z,66.99
2023-04-20T20:28:44.236Z,68.01
2023-04-20T20:31:12.237Z,71.64
2023-04-20T20:33:43.107Z,68.68
2023-04-20T20:36:11.239Z,68.55
2023-04-20T20:38:40.922Z,67.09
2023-04-20T20:41:09.537Z,69.80
2023-04-20T20:43:37.728Z,74.43
2023-04-20T20:46:06.109Z,75.34
2023-04-20T20:48:35.058Z,72.60
2023-04-20T20:51:03.165Z,69.91
2023-04-20T20:53:31.278Z,75.46
2023-04-20T20:55:59.698Z,73.92
2023-04-20T20:58:27.727Z,76.81
2023-04-20T21:00:55.802Z,76.72
2023-04-20T21:03:24.481Z,74.40
2023-04-20T21:05:54.700Z,73.86
2023-04-20T21:08:22.754Z,74.61
2023-04-20T21:10:51.346Z,74.57
2023-04-20T21:13:19.317Z,72.40
2023-04-20T21:15:47.474Z,73.90
2023-04-20T21:18:16.095Z,73.78
2023-04-20T21:20:44.339Z,78.19
2023-04-20T21:23:12.304Z,80.58
2023-04-20T21:25:40.612Z,80.96
2023-04-20T21:28:08.643Z,79.56
2023-04-20T21:30:36.646Z,78.60
2023-04-20T21:33:05.230Z,80.50
2023-04-20T21:35:33.223Z,78.64
2023-04-20T21:38:01.188Z,78.62
2023-04-20T21:40:29.451Z,80.90
2023-04-20T21:42:57.437Z,80.24
2023-04-20T21:45:25.415Z,80.56
2023-04-20T21:47:55.582Z,78.78
2023-04-20T21:50:27.338Z,81.49
2023-04-20T21:52:55.831Z,84.37
2023-04-20T21:55:23.837Z,81.92
2023-04-20T21:57:51.864Z,86.17
2023-04-20T22:00:20.486Z,86.48
2023-04-20T22:02:50.402Z,86.87
2023-04-20T22:05:18.710Z,83.72
2023-04-20T22:07:46.963Z,80.90
2023-04-20T22:10:15.506Z,83.20
2023-04-20T22:12:43.601Z,83.23
2023-04-20T22:15:13.856Z,81.24
2023-04-20T22:17:45.691Z,81.42
2023-04-20T22:20:15.674Z,82.72
2023-04-20T22:22:44.048Z,77.86
2023-04-20T22:25:12.362Z,79.47
2023-04-20T22:27:40.456Z,82.08
2023-04-20T22:30:09.879Z,82.68
2023-04-20T22:32:38.733Z,80.29
2023-04-20T22:35:08.037Z,80.96
2023-04-20T22:37:36.391Z,82.37
2023-04-20T22:40:06.236Z,82.66
2023-04-20T22:42:36.363Z,85.00
2023-04-20T22:45:05.284Z,83.65
2023-04-20T22:47:34.112Z,84.57
2023-04-20T22:50:02.192Z,88.02
2023-04-20T22:52:31.110Z,87.50
2023-04-20T22:54:59.270Z,88.68
2023-04-20T22:57:27.421Z,87.07
2023-04-20T22:59:55.782Z,87.19
2023-04-20T23:02:24.218Z,86.68
2023-04-20T23:04:52.824Z,84.23
2023-04-20T23:07:21.500Z,85.92
2023-04-20T23:09:49.527Z,84.98
2023-04-20T23:12:17.742Z,85.05
2023-04-20T23:14:46.116Z,84.62
2023-04-20T23:17:14.066Z,84.07
2023-04-20T23:19:42.090Z,83.66
2023-04-20T23:22:10.475Z,83.77
2023-04-20T23:24:38.437Z,84.66
2023-04-20T23:27:06.406Z,86.78
2023-04-20T23:29:34.930Z,88.66
2023-04-20T23:32:03.202Z,85.98
2023-04-20T23:34:31.365Z,88.62
2023-04-20T23:36:59.924Z,86.88
2023-04-20T23:39:28.101Z,85.61
2023-04-20T23:41:56.618Z,90.27
2023-04-20T23:44:25.020Z,86.93
2023-04-20T23:46:53.008Z,88.57
2023-04-20T23:49:21.216Z,84.68
2023-04-20T23:51:49.702Z,81.59
2023-04-20T23:54:17.682Z,85.34
2023-04-20T23:56:45.623Z,85.20
2023-04-20T23:59:14.156Z,82.67
